This is the latest recevied weather packets stored in our database for station/object IT9GFD-13. If no packets are shown the sender has not sent any weather packets the latest 10 day(s).
| Time | Temp. | Humidity | Pressure | Rain* | Wind** | Luminosity | Snow |
|---|---|---|---|---|---|---|---|
| 1777984216 | 20.56° C | 67% | 1018.8 hPa | 0 mm | - | - | - |
| 1777983643 | 20° C | 69% | 1019 hPa | 0 mm | - | - | - |
| 1777980616 | 20.56° C | 70% | 1019.7 hPa | 0 mm | - | - | - |
| 1777980016 | 20.56° C | 71% | 1019.8 hPa | 0 mm | - | - | - |
| 1777972816 | 20.56° C | 74% | 1019.5 hPa | 0 mm | - | - | - |
| 1777969216 | 19.44° C | 78% | 1019.6 hPa | 0 mm | - | - | - |
| 1777968616 | 19.44° C | 79% | 1019.7 hPa | 0 mm | - | - | - |
| 1777968016 | 19.44° C | 80% | 1019.7 hPa | 0 mm | - | - | - |
| 1777959016 | 16.67° C | 77% | 1019.4 hPa | 0 mm | - | - | - |
| 1777957816 | 16.11° C | 72% | 1019.3 hPa | 0 mm | - | - | - |
| 1777956616 | 15.56° C | 71% | 1019 hPa | 0 mm | - | - | - |
| 1777948817 | 15.56° C | 69% | 1019.1 hPa | 0 mm | - | - | - |
| 1777945237 | 17.22° C | 58% | 1019.2 hPa | 0 mm | - | - | - |
| 1777943417 | 17.78° C | 52% | 1019.4 hPa | 0 mm | - | - | - |
| 1777940417 | 14.44° C | 69% | 1019.7 hPa | 0 mm | - | - | - |
| 1777939817 | 14.44° C | 69% | 1019.8 hPa | 0 mm | - | - | - |
| 1777939217 | 14.44° C | 70% | 1020 hPa | 0 mm | - | - | - |
| 1777937417 | 14.44° C | 73% | 1020.4 hPa | 0 mm | - | - | - |
| 1777933217 | 15° C | 78% | 1020.7 hPa | 0 mm | - | - | - |
| 1777931417 | 15° C | 78% | 1020.8 hPa | 0 mm | - | - | - |
| 1777926017 | 16.11° C | 81% | 1021.2 hPa | 0 mm | - | - | - |
| 1777923017 | 16.67° C | 79% | 1021.1 hPa | 0 mm | - | - | - |
| 1777921837 | 17.22° C | 78% | 1020.9 hPa | 0 mm | - | - | - |
| 1777916417 | 18.89° C | 75% | 1020.3 hPa | 0 mm | - | - | - |
| 1777914621 | 18.89° C | 74% | 1020 hPa | 0 mm | - | - | - |
* Rain latest hour (hover to see other rain measurements)
** Current wind speed in m/s (hover to see current wind gust speed)